createdAt,value
2018-06-25T00:02:00.000Z,99001
2018-06-25T00:07:00.000Z,99001
2018-06-25T00:12:00.000Z,99005
2018-06-25T00:17:00.000Z,99005
2018-06-25T00:22:00.000Z,99003
2018-06-25T00:27:00.000Z,98998
2018-06-25T00:32:00.000Z,98997
2018-06-25T00:37:00.000Z,99000
2018-06-25T00:42:00.000Z,98994
2018-06-25T00:47:00.000Z,98998
2018-06-25T00:52:00.000Z,98991
2018-06-25T00:57:00.000Z,98985
2018-06-25T01:02:00.000Z,98987
2018-06-25T01:07:00.000Z,98986
2018-06-25T01:12:00.000Z,98988
2018-06-25T01:17:00.000Z,98992
2018-06-25T01:22:00.000Z,98991
2018-06-25T01:27:00.000Z,98983
2018-06-25T01:32:00.000Z,98984
2018-06-25T01:37:00.000Z,98983
2018-06-25T01:42:00.000Z,98980
2018-06-25T01:47:00.000Z,98978
2018-06-25T01:52:00.000Z,98981
2018-06-25T01:57:00.000Z,98978
2018-06-25T02:02:00.000Z,98986
2018-06-25T02:07:00.000Z,98983
2018-06-25T02:12:00.000Z,98985
2018-06-25T02:17:00.000Z,98987
2018-06-25T02:22:00.000Z,98981
2018-06-25T02:27:00.000Z,98984
2018-06-25T02:32:00.000Z,98986
2018-06-25T02:37:00.000Z,98978
2018-06-25T02:42:00.000Z,98982
2018-06-25T02:47:00.000Z,98985
2018-06-25T02:52:00.000Z,98991
2018-06-25T02:57:00.000Z,98992
2018-06-25T03:02:00.000Z,98987
2018-06-25T03:07:00.000Z,98980
2018-06-25T03:12:00.000Z,98987
2018-06-25T03:17:00.000Z,98988
2018-06-25T03:22:00.000Z,99000
2018-06-25T03:27:00.000Z,98993
2018-06-25T03:32:00.000Z,98994
2018-06-25T03:37:00.000Z,99003
2018-06-25T03:42:00.000Z,99005
2018-06-25T03:47:00.000Z,99015
2018-06-25T03:52:00.000Z,99014
2018-06-25T03:57:00.000Z,99019
2018-06-25T04:02:00.000Z,99018
2018-06-25T04:08:00.000Z,99015
2018-06-25T04:13:00.000Z,99018
2018-06-25T04:18:00.000Z,99016
2018-06-25T04:23:00.000Z,99026
2018-06-25T04:28:00.000Z,99031
2018-06-25T04:33:00.000Z,99035
2018-06-25T04:38:00.000Z,99045
2018-06-25T04:43:00.000Z,99047
2018-06-25T04:48:00.000Z,99053
2018-06-25T04:53:00.000Z,99061
2018-06-25T04:58:00.000Z,99076
2018-06-25T05:03:00.000Z,99086
2018-06-25T05:08:00.000Z,99089
2018-06-25T05:13:00.000Z,99092
2018-06-25T05:18:00.000Z,99093
2018-06-25T05:23:00.000Z,99094
2018-06-25T05:28:00.000Z,99112
2018-06-25T05:33:00.000Z,99101
2018-06-25T05:38:00.000Z,99100
2018-06-25T05:43:00.000Z,99102
2018-06-25T05:48:00.000Z,99112
2018-06-25T05:53:00.000Z,99107
2018-06-25T05:58:00.000Z,99109
2018-06-25T06:03:00.000Z,99114
2018-06-25T06:08:00.000Z,99121
2018-06-25T06:13:00.000Z,99124
2018-06-25T06:18:00.000Z,99115
2018-06-25T06:23:00.000Z,99121
2018-06-25T06:28:00.000Z,99121
2018-06-25T06:33:00.000Z,99135
2018-06-25T06:38:00.000Z,99142
2018-06-25T06:43:00.000Z,99146
2018-06-25T06:48:00.000Z,99149
2018-06-25T06:53:00.000Z,99142
2018-06-25T06:58:00.000Z,99139
2018-06-25T07:03:00.000Z,99137
2018-06-25T07:08:00.000Z,99149
2018-06-25T07:13:00.000Z,99141
2018-06-25T07:18:00.000Z,99150
2018-06-25T07:23:00.000Z,99142
2018-06-25T07:28:00.000Z,99153
2018-06-25T07:33:00.000Z,99140
2018-06-25T07:38:00.000Z,99154
2018-06-25T07:43:00.000Z,99147
2018-06-25T07:48:00.000Z,99150
2018-06-25T07:53:00.000Z,99156
2018-06-25T07:58:00.000Z,99152
2018-06-25T08:03:00.000Z,99139
2018-06-25T08:08:00.000Z,99130
2018-06-25T08:13:00.000Z,99123
2018-06-25T08:18:00.000Z,99126
2018-06-25T08:23:00.000Z,99123
2018-06-25T08:28:00.000Z,99129
2018-06-25T08:33:00.000Z,99133
2018-06-25T08:38:00.000Z,99148
2018-06-25T08:43:00.000Z,99147
2018-06-25T08:48:00.000Z,99152
2018-06-25T08:53:00.000Z,99155
2018-06-25T08:58:00.000Z,99163
2018-06-25T09:03:00.000Z,99179
2018-06-25T09:08:00.000Z,99172
2018-06-25T09:13:00.000Z,99181
2018-06-25T09:18:00.000Z,99171
2018-06-25T09:23:00.000Z,99177
2018-06-25T09:28:00.000Z,99178
2018-06-25T09:33:00.000Z,99177
2018-06-25T09:38:00.000Z,99176
2018-06-25T09:44:00.000Z,99179
2018-06-25T09:49:00.000Z,99175
2018-06-25T09:54:00.000Z,99189
2018-06-25T09:59:00.000Z,99184
2018-06-25T10:04:00.000Z,99190
2018-06-25T10:09:00.000Z,99180
2018-06-25T10:14:00.000Z,99176
2018-06-25T10:19:00.000Z,99194
2018-06-25T10:24:00.000Z,99195
2018-06-25T10:29:00.000Z,99192
2018-06-25T10:34:00.000Z,99203
2018-06-25T10:39:00.000Z,99201
2018-06-25T10:44:00.000Z,99189
2018-06-25T10:49:00.000Z,99199
2018-06-25T10:54:00.000Z,99191
2018-06-25T10:59:00.000Z,99196
2018-06-25T11:04:00.000Z,99197
2018-06-25T11:09:00.000Z,99195
2018-06-25T11:14:00.000Z,99194
2018-06-25T11:19:00.000Z,99184
2018-06-25T11:24:00.000Z,99188
2018-06-25T11:29:00.000Z,99196
2018-06-25T11:34:00.000Z,99197
2018-06-25T11:39:00.000Z,99181
2018-06-25T11:44:00.000Z,99182
2018-06-25T11:49:00.000Z,99185
2018-06-25T11:54:00.000Z,99187
2018-06-25T11:59:00.000Z,99174
2018-06-25T12:04:00.000Z,99181
2018-06-25T12:09:00.000Z,99183
2018-06-25T12:14:00.000Z,99169
2018-06-25T12:19:00.000Z,99172
2018-06-25T12:24:00.000Z,99182
2018-06-25T12:29:00.000Z,99173
2018-06-25T12:34:00.000Z,99177
2018-06-25T12:39:00.000Z,99167
2018-06-25T12:44:00.000Z,99168
2018-06-25T12:49:00.000Z,99169
2018-06-25T12:54:00.000Z,99165
2018-06-25T12:59:00.000Z,99176
2018-06-25T13:04:00.000Z,99169
2018-06-25T13:09:00.000Z,99179
2018-06-25T13:14:00.000Z,99183
2018-06-25T13:19:00.000Z,99171
2018-06-25T13:24:00.000Z,99161
2018-06-25T13:29:00.000Z,99184
2018-06-25T13:34:00.000Z,99163
2018-06-25T13:39:00.000Z,99178
2018-06-25T13:44:00.000Z,99177
2018-06-25T13:49:00.000Z,99186
2018-06-25T13:54:00.000Z,99175
2018-06-25T13:59:00.000Z,99164
2018-06-25T14:04:00.000Z,99168
2018-06-25T14:09:00.000Z,99168
2018-06-25T14:14:00.000Z,99167
2018-06-25T14:19:00.000Z,99175
2018-06-25T14:24:00.000Z,99161
2018-06-25T14:29:00.000Z,99168
2018-06-25T14:34:00.000Z,99153
2018-06-25T14:39:00.000Z,99152
2018-06-25T14:44:00.000Z,99158
2018-06-25T14:49:00.000Z,99149
2018-06-25T14:54:00.000Z,99155
2018-06-25T14:59:00.000Z,99153
2018-06-25T15:04:00.000Z,99164
2018-06-25T15:09:00.000Z,99154
2018-06-25T15:14:00.000Z,99153
2018-06-25T15:19:00.000Z,99155
2018-06-25T15:25:00.000Z,99155
2018-06-25T15:30:00.000Z,99155
2018-06-25T15:35:00.000Z,99151
2018-06-25T15:40:00.000Z,99151
2018-06-25T15:45:00.000Z,99139
2018-06-25T15:50:00.000Z,99129
2018-06-25T15:55:00.000Z,99134
2018-06-25T16:00:00.000Z,99123
2018-06-25T16:05:00.000Z,99144
2018-06-25T16:10:00.000Z,99135
2018-06-25T16:15:00.000Z,99129
2018-06-25T16:20:00.000Z,99128
2018-06-25T16:25:00.000Z,99126
2018-06-25T16:30:00.000Z,99129
2018-06-25T16:35:00.000Z,99139
2018-06-25T16:40:00.000Z,99137
2018-06-25T16:45:00.000Z,99131
2018-06-25T16:50:00.000Z,99135
2018-06-25T16:55:00.000Z,99143
2018-06-25T17:00:00.000Z,99137
2018-06-25T17:05:00.000Z,99136
2018-06-25T17:10:00.000Z,99135
2018-06-25T17:15:00.000Z,99145
2018-06-25T17:20:00.000Z,99147
2018-06-25T17:25:00.000Z,99144
2018-06-25T17:30:00.000Z,99145
2018-06-25T17:35:00.000Z,99145
2018-06-25T17:40:00.000Z,99150
2018-06-25T17:45:00.000Z,99141
2018-06-25T17:50:00.000Z,99163
2018-06-25T17:55:00.000Z,99161
2018-06-25T18:00:00.000Z,99162
2018-06-25T18:05:00.000Z,99170
2018-06-25T18:10:00.000Z,99166
2018-06-25T18:15:00.000Z,99163
2018-06-25T18:20:00.000Z,99154
2018-06-25T18:25:00.000Z,99167
2018-06-25T18:30:00.000Z,99161
2018-06-25T18:35:00.000Z,99163
2018-06-25T18:40:00.000Z,99169
2018-06-25T18:45:00.000Z,99159
2018-06-25T18:50:00.000Z,99168
2018-06-25T18:55:00.000Z,99167
2018-06-25T19:00:00.000Z,99180
2018-06-25T19:05:00.000Z,99178
2018-06-25T19:10:00.000Z,99187
2018-06-25T19:15:00.000Z,99192
2018-06-25T19:20:00.000Z,99188
2018-06-25T19:25:00.000Z,99196
2018-06-25T19:30:00.000Z,99201
2018-06-25T19:35:00.000Z,99217
2018-06-25T19:40:00.000Z,99222
2018-06-25T19:45:00.000Z,99220
2018-06-25T19:50:00.000Z,99225
2018-06-25T19:55:00.000Z,99220
2018-06-25T20:00:00.000Z,99219
2018-06-25T20:05:00.000Z,99226
2018-06-25T20:10:00.000Z,99221
2018-06-25T20:15:00.000Z,99216
2018-06-25T20:20:00.000Z,99234
2018-06-25T20:25:00.000Z,99232
2018-06-25T20:30:00.000Z,99233
2018-06-25T20:35:00.000Z,99241
2018-06-25T20:40:00.000Z,99237
2018-06-25T20:45:00.000Z,99231
2018-06-25T20:50:00.000Z,99239
2018-06-25T20:55:00.000Z,99233
2018-06-25T21:00:00.000Z,99236
2018-06-25T21:05:00.000Z,99238
2018-06-25T21:10:00.000Z,99243
2018-06-25T21:15:00.000Z,99242
2018-06-25T21:20:00.000Z,99240
2018-06-25T21:25:00.000Z,99247
2018-06-25T21:30:00.000Z,99244
2018-06-25T21:36:00.000Z,99250
2018-06-25T21:41:00.000Z,99248
2018-06-25T21:46:00.000Z,99246
2018-06-25T21:51:00.000Z,99250
2018-06-25T21:56:00.000Z,99250
2018-06-25T22:01:00.000Z,99253
2018-06-25T22:06:00.000Z,99256
2018-06-25T22:11:00.000Z,99263
2018-06-25T22:16:00.000Z,99270
2018-06-25T22:21:00.000Z,99269
2018-06-25T22:26:00.000Z,99275
2018-06-25T22:31:00.000Z,99272
2018-06-25T22:36:00.000Z,99269
2018-06-25T22:41:00.000Z,99274
2018-06-25T22:46:00.000Z,99281
2018-06-25T22:51:00.000Z,99264
2018-06-25T22:56:00.000Z,99266
2018-06-25T23:01:00.000Z,99250
2018-06-25T23:06:00.000Z,99249
2018-06-25T23:11:00.000Z,99238
2018-06-25T23:16:00.000Z,99235
2018-06-25T23:21:00.000Z,99233
2018-06-25T23:26:00.000Z,99234
2018-06-25T23:31:00.000Z,99225
2018-06-25T23:36:00.000Z,99220
2018-06-25T23:41:00.000Z,99222
2018-06-25T23:46:00.000Z,99223
2018-06-25T23:51:00.000Z,99218
2018-06-25T23:56:00.000Z,99215
